createdAt,value
2019-02-02T00:01:08.974Z,31.70
2019-02-02T00:03:38.463Z,30.60
2019-02-02T00:06:07.985Z,31.20
2019-02-02T00:08:38.107Z,35.27
2019-02-02T00:11:07.724Z,32.10
2019-02-02T00:13:37.181Z,29.23
2019-02-02T00:16:07.243Z,30.37
2019-02-02T00:18:36.732Z,35.70
2019-02-02T00:21:06.687Z,31.17
2019-02-02T00:23:36.129Z,32.23
2019-02-02T00:26:06.121Z,31.57
2019-02-02T00:28:35.565Z,30.77
2019-02-02T00:31:05.325Z,31.57
2019-02-02T00:33:34.811Z,32.27
2019-02-02T00:36:04.424Z,35.47
2019-02-02T00:38:33.872Z,33.57
2019-02-02T00:41:03.345Z,29.90
2019-02-02T00:43:32.852Z,34.07
2019-02-02T00:46:02.298Z,29.53
2019-02-02T00:48:31.787Z,34.20
2019-02-02T00:51:01.313Z,34.77
2019-02-02T00:53:30.764Z,35.77
2019-02-02T00:56:00.243Z,36.27
2019-02-02T00:58:29.847Z,33.33
2019-02-02T01:00:59.295Z,34.53
2019-02-02T01:03:28.781Z,30.70
2019-02-02T01:05:58.289Z,34.33
2019-02-02T01:08:27.733Z,33.43
2019-02-02T01:10:57.218Z,35.20
2019-02-02T01:13:26.666Z,33.93
2019-02-02T01:15:56.182Z,35.67
2019-02-02T01:18:25.665Z,32.00
2019-02-02T01:20:55.177Z,34.20
2019-02-02T01:23:24.627Z,31.60
2019-02-02T01:25:54.109Z,35.27
2019-02-02T01:28:23.548Z,32.57
2019-02-02T01:30:53.123Z,36.97
2019-02-02T01:33:22.602Z,36.35
2019-02-02T01:35:52.049Z,33.37
2019-02-02T01:38:21.498Z,35.90
2019-02-02T01:40:50.970Z,32.50
2019-02-02T01:43:20.423Z,33.67
2019-02-02T01:45:49.935Z,35.63
2019-02-02T01:48:19.414Z,35.00
2019-02-02T01:50:48.863Z,35.20
2019-02-02T01:53:18.308Z,33.37
2019-02-02T01:55:47.795Z,34.30
2019-02-02T01:58:17.322Z,33.40
2019-02-02T02:00:46.756Z,32.83
2019-02-02T02:03:16.312Z,32.10
2019-02-02T02:05:45.821Z,31.70
2019-02-02T02:08:15.282Z,32.47
2019-02-02T02:10:44.755Z,30.90
2019-02-02T02:13:14.202Z,30.40
2019-02-02T02:15:43.671Z,30.60
2019-02-02T02:18:13.153Z,31.80
2019-02-02T02:20:42.608Z,31.90
2019-02-02T02:23:12.049Z,29.10
2019-02-02T02:25:41.532Z,29.20
2019-02-02T02:28:10.981Z,26.23
2019-02-02T02:30:40.424Z,28.00
2019-02-02T02:33:09.948Z,29.10
2019-02-02T02:35:39.384Z,30.90
2019-02-02T02:38:08.903Z,29.70
2019-02-02T02:40:38.375Z,29.67
2019-02-02T02:43:07.828Z,27.80
2019-02-02T02:45:37.284Z,28.27
2019-02-02T02:48:07.349Z,30.40
2019-02-02T02:50:36.784Z,31.73
2019-02-02T02:53:06.346Z,29.80
2019-02-02T02:55:35.830Z,30.47
2019-02-02T02:58:05.778Z,25.27
2019-02-02T03:00:35.229Z,27.73
2019-02-02T03:03:05.419Z,24.50
2019-02-02T03:05:34.861Z,24.50
2019-02-02T03:08:04.308Z,27.93
2019-02-02T03:10:33.790Z,24.73
2019-02-02T03:13:03.229Z,23.87
2019-02-02T03:15:32.702Z,24.00
2019-02-02T03:18:02.228Z,24.47
2019-02-02T03:20:31.672Z,25.50
2019-02-02T03:23:01.123Z,23.23
2019-02-02T03:25:30.616Z,23.97
2019-02-02T03:28:00.068Z,26.70
2019-02-02T03:30:29.525Z,22.50
2019-02-02T03:32:59.011Z,23.30
2019-02-02T03:35:30.390Z,22.10
2019-02-02T03:37:59.827Z,23.80
2019-02-02T03:40:29.299Z,23.00
2019-02-02T03:42:59.807Z,22.60
2019-02-02T03:45:29.285Z,22.70
2019-02-02T03:47:58.724Z,23.50
2019-02-02T03:50:28.196Z,23.10
2019-02-02T03:52:57.645Z,23.13
2019-02-02T03:55:27.131Z,20.97
2019-02-02T03:57:57.701Z,23.20
2019-02-02T04:00:27.122Z,22.40
2019-02-02T04:02:56.664Z,23.73
2019-02-02T04:05:29.811Z,21.90
2019-02-02T04:07:59.457Z,23.40
2019-02-02T04:10:28.928Z,21.67
2019-02-02T04:12:58.593Z,21.73
2019-02-02T04:15:28.040Z,21.27
2019-02-02T04:17:57.481Z,24.87
2019-02-02T04:20:26.956Z,19.93
2019-02-02T04:22:56.480Z,24.00
2019-02-02T04:25:25.930Z,23.33
2019-02-02T04:27:55.374Z,23.10
2019-02-02T04:30:27.535Z,23.10
2019-02-02T04:32:57.123Z,21.53
2019-02-02T04:35:26.580Z,21.73
2019-02-02T04:37:56.070Z,21.43
2019-02-02T04:40:25.517Z,19.60
2019-02-02T04:42:54.995Z,25.30
2019-02-02T04:45:24.439Z,21.07
2019-02-02T04:47:53.916Z,23.97
2019-02-02T04:50:23.663Z,23.40
2019-02-02T04:52:53.109Z,23.60
2019-02-02T04:55:22.623Z,22.03
2019-02-02T04:57:52.104Z,22.70
2019-02-02T05:00:27.222Z,22.03
2019-02-02T05:02:56.983Z,23.77
2019-02-02T05:05:26.431Z,22.23
2019-02-02T05:07:56.054Z,18.97
2019-02-02T05:10:26.125Z,23.20
2019-02-02T05:12:55.778Z,24.63
2019-02-02T05:15:25.293Z,21.90
2019-02-02T05:17:54.740Z,23.60
2019-02-02T05:20:24.288Z,21.67
2019-02-02T05:22:53.768Z,22.70
2019-02-02T05:25:23.221Z,22.63
2019-02-02T05:27:52.776Z,24.03
2019-02-02T05:30:32.480Z,22.70
2019-02-02T05:33:01.970Z,17.53
2019-02-02T05:35:31.407Z,19.80
2019-02-02T05:38:00.885Z,18.53
2019-02-02T05:40:30.369Z,15.63
2019-02-02T05:42:59.916Z,20.17
2019-02-02T05:45:29.363Z,17.77
2019-02-02T05:47:58.877Z,17.70
2019-02-02T05:50:28.348Z,16.97
2019-02-02T05:52:57.976Z,18.20
2019-02-02T05:55:27.520Z,17.50
2019-02-02T05:57:56.961Z,18.87
2019-02-02T06:00:34.207Z,18.43
2019-02-02T06:03:03.649Z,19.67
2019-02-02T06:05:33.139Z,20.03
2019-02-02T06:08:03.260Z,18.83
2019-02-02T06:10:32.920Z,16.00
2019-02-02T06:13:02.385Z,16.33
2019-02-02T06:15:31.866Z,15.20
2019-02-02T06:18:01.327Z,15.60
2019-02-02T06:20:30.779Z,16.70
2019-02-02T06:23:00.238Z,17.43
2019-02-02T06:25:29.682Z,14.07
2019-02-02T06:27:59.171Z,14.97
2019-02-02T06:30:28.663Z,16.50
2019-02-02T06:32:58.103Z,16.60
2019-02-02T06:35:27.588Z,15.93
2019-02-02T06:37:57.035Z,16.73
2019-02-02T06:40:26.504Z,17.77
2019-02-02T06:42:55.942Z,15.80
2019-02-02T06:45:29.427Z,24.33
2019-02-02T06:47:59.111Z,18.73
2019-02-02T06:50:28.565Z,21.90
2019-02-02T06:52:59.197Z,25.77
2019-02-02T06:55:28.700Z,21.10
2019-02-02T06:57:58.249Z,23.23
2019-02-02T07:00:30.184Z,27.23
2019-02-02T07:02:59.705Z,23.53
2019-02-02T07:05:29.198Z,24.73
2019-02-02T07:07:58.644Z,26.03
2019-02-02T07:10:30.180Z,23.50
2019-02-02T07:12:59.632Z,20.63
2019-02-02T07:15:31.425Z,20.07
2019-02-02T07:18:00.906Z,21.63
2019-02-02T07:20:30.355Z,20.83
2019-02-02T07:22:59.831Z,21.10
2019-02-02T07:25:29.311Z,20.37
2019-02-02T07:27:58.777Z,19.60
2019-02-02T07:30:29.633Z,21.27
2019-02-02T07:32:59.449Z,19.27
2019-02-02T07:35:29.701Z,22.03
2019-02-02T07:37:59.139Z,21.73
2019-02-02T07:40:28.610Z,25.87
2019-02-02T07:42:58.070Z,22.40
2019-02-02T07:45:32.170Z,21.53
2019-02-02T07:48:01.624Z,20.97
2019-02-02T07:50:31.156Z,16.50
2019-02-02T07:53:00.766Z,14.03
2019-02-02T07:55:30.249Z,14.23
2019-02-02T07:57:59.720Z,12.07
2019-02-02T08:00:40.717Z,13.50
2019-02-02T08:03:07.947Z,12.43
2019-02-02T08:05:37.411Z,13.90
2019-02-02T08:08:07.461Z,12.43
2019-02-02T08:10:36.969Z,10.40
2019-02-02T08:13:07.020Z,11.10
2019-02-02T08:15:36.495Z,16.83
2019-02-02T08:18:06.847Z,18.13
2019-02-02T08:20:37.282Z,17.50
2019-02-02T08:23:06.910Z,20.07
2019-02-02T08:25:36.475Z,21.10
2019-02-02T08:28:06.168Z,22.70
2019-02-02T08:30:36.374Z,22.30
2019-02-02T08:33:06.946Z,19.30
2019-02-02T08:35:36.470Z,19.03
2019-02-02T08:38:06.477Z,18.57
2019-02-02T08:40:35.940Z,17.37
2019-02-02T08:43:05.891Z,19.87
2019-02-02T08:45:35.362Z,19.00
2019-02-02T08:48:05.042Z,16.13
2019-02-02T08:50:36.996Z,15.83
2019-02-02T08:53:07.189Z,16.10
2019-02-02T08:55:36.638Z,12.70
2019-02-02T08:58:06.513Z,9.90
2019-02-02T09:00:36.175Z,12.10
2019-02-02T09:03:06.120Z,10.47
2019-02-02T09:05:35.635Z,9.50
2019-02-02T09:08:05.557Z,8.60
2019-02-02T09:10:35.384Z,11.20
2019-02-02T09:13:05.055Z,9.40
2019-02-02T09:15:34.706Z,9.00
2019-02-02T09:18:04.915Z,9.40
2019-02-02T09:20:34.357Z,9.87
2019-02-02T09:23:06.631Z,8.07
2019-02-02T09:25:35.075Z,8.93
2019-02-02T09:28:04.753Z,10.20
2019-02-02T09:30:36.964Z,9.23
2019-02-02T09:33:06.807Z,8.53
2019-02-02T09:35:36.318Z,9.73
2019-02-02T09:38:06.303Z,8.10
2019-02-02T09:40:55.077Z,8.50
2019-02-02T09:43:24.562Z,8.83
2019-02-02T09:45:54.086Z,6.93
2019-02-02T09:48:23.525Z,7.60
2019-02-02T09:50:53.004Z,7.47
2019-02-02T09:53:22.445Z,7.67
2019-02-02T09:55:51.924Z,7.60
2019-02-02T09:58:21.365Z,6.90
2019-02-02T10:00:50.843Z,7.87
2019-02-02T10:03:20.322Z,6.40
2019-02-02T10:05:49.812Z,7.93
2019-02-02T10:08:19.298Z,7.00
2019-02-02T10:10:48.778Z,7.80
2019-02-02T10:13:18.224Z,6.40
2019-02-02T10:15:47.718Z,7.27
2019-02-02T10:18:17.150Z,7.53
2019-02-02T10:20:46.619Z,7.27
2019-02-02T10:23:16.179Z,7.07
2019-02-02T10:25:45.666Z,6.43
2019-02-02T10:28:15.111Z,6.40
2019-02-02T10:30:44.836Z,6.50
2019-02-02T10:33:14.354Z,5.90
2019-02-02T10:35:43.817Z,6.53
2019-02-02T10:38:13.564Z,7.37
2019-02-02T10:40:43.083Z,6.90
2019-02-02T10:43:12.640Z,7.30
2019-02-02T10:45:42.339Z,7.07
2019-02-02T10:48:11.789Z,6.73
2019-02-02T10:50:41.238Z,6.10
2019-02-02T10:53:10.706Z,7.70
2019-02-02T10:55:40.152Z,6.40
2019-02-02T10:58:09.697Z,7.43
2019-02-02T11:00:40.654Z,7.10
2019-02-02T11:03:10.208Z,7.27
2019-02-02T11:05:40.037Z,6.87
2019-02-02T11:08:09.601Z,8.37
2019-02-02T11:10:39.296Z,8.10
2019-02-02T11:13:09.074Z,8.30
2019-02-02T11:15:38.698Z,7.80
2019-02-02T11:18:08.197Z,8.63
2019-02-02T11:20:38.603Z,7.10
2019-02-02T11:23:08.120Z,7.80
2019-02-02T11:25:37.694Z,7.97
2019-02-02T11:28:07.437Z,7.03
2019-02-02T11:30:37.169Z,6.27
2019-02-02T11:33:06.779Z,7.80
2019-02-02T11:35:36.265Z,8.73
2019-02-02T11:38:06.095Z,8.40
2019-02-02T11:40:36.481Z,9.07
2019-02-02T11:43:06.665Z,9.40
2019-02-02T11:45:36.116Z,8.50
2019-02-02T11:48:05.668Z,9.03
2019-02-02T11:50:35.179Z,9.17
2019-02-02T11:53:04.988Z,9.40
2019-02-02T11:55:34.439Z,9.43
2019-02-02T11:58:03.926Z,11.43
2019-02-02T12:00:38.062Z,11.63
2019-02-02T12:03:07.602Z,11.30
2019-02-02T12:05:37.434Z,11.93
2019-02-02T12:08:07.230Z,10.30
2019-02-02T12:10:37.317Z,10.33
2019-02-02T12:13:06.933Z,10.63
2019-02-02T12:15:36.423Z,11.30
2019-02-02T12:18:07.681Z,10.73
2019-02-02T12:20:37.132Z,12.20
2019-02-02T12:23:06.691Z,12.60
2019-02-02T12:25:36.206Z,13.07
2019-02-02T12:28:09.099Z,11.37
2019-02-02T12:30:37.754Z,10.17
2019-02-02T12:33:07.579Z,12.93
2019-02-02T12:35:37.283Z,8.80
2019-02-02T12:38:07.239Z,8.83
2019-02-02T12:40:36.648Z,9.10
2019-02-02T12:43:06.103Z,7.93
2019-02-02T12:45:45.902Z,9.37
2019-02-02T12:48:15.428Z,9.87
2019-02-02T12:50:44.976Z,9.63
2019-02-02T12:53:14.503Z,7.27
2019-02-02T12:55:43.957Z,7.93
2019-02-02T12:58:13.570Z,7.20
2019-02-02T13:00:44.405Z,7.10
2019-02-02T13:03:14.043Z,6.30
2019-02-02T13:05:43.597Z,7.30
2019-02-02T13:08:13.268Z,7.07
2019-02-02T13:10:42.714Z,8.27
2019-02-02T13:13:12.158Z,6.50
2019-02-02T13:15:42.866Z,7.00
2019-02-02T13:18:12.282Z,8.13
2019-02-02T13:20:41.764Z,6.23
2019-02-02T13:23:11.234Z,7.83
2019-02-02T13:25:40.722Z,8.23
2019-02-02T13:28:10.249Z,9.40
2019-02-02T13:30:39.718Z,9.60
2019-02-02T13:33:09.169Z,7.10
2019-02-02T13:35:39.192Z,8.20
2019-02-02T13:38:08.638Z,9.20
2019-02-02T13:40:38.133Z,9.10
2019-02-02T13:43:07.610Z,8.80
2019-02-02T13:45:37.058Z,9.60
2019-02-02T13:48:07.038Z,9.10
2019-02-02T13:50:36.502Z,9.07
2019-02-02T13:53:07.504Z,9.53
2019-02-02T13:55:39.789Z,9.23
2019-02-02T13:58:08.153Z,8.60
2019-02-02T14:00:37.632Z,8.80
2019-02-02T14:03:07.164Z,9.10
2019-02-02T14:05:36.714Z,7.27
2019-02-02T14:08:06.472Z,8.67
2019-02-02T14:10:36.381Z,9.67
2019-02-02T14:13:05.835Z,9.20
2019-02-02T14:15:35.304Z,8.30
2019-02-02T14:18:04.967Z,7.93
2019-02-02T14:20:34.442Z,9.60
2019-02-02T14:23:04.526Z,9.70
2019-02-02T14:25:34.144Z,9.67
2019-02-02T14:28:03.602Z,10.10
2019-02-02T14:30:33.219Z,10.30
2019-02-02T14:33:13.314Z,9.47
2019-02-02T14:35:33.988Z,7.40
2019-02-02T14:38:03.478Z,9.97
2019-02-02T14:40:32.926Z,9.70
2019-02-02T14:43:02.416Z,9.53
2019-02-02T14:45:31.922Z,9.53
2019-02-02T14:48:01.384Z,10.53
2019-02-02T14:50:32.261Z,10.00
2019-02-02T14:53:02.175Z,9.30
2019-02-02T14:55:31.794Z,9.00
2019-02-02T14:58:02.899Z,7.40
2019-02-02T15:00:32.624Z,9.33
2019-02-02T15:03:03.397Z,7.70
2019-02-02T15:05:42.504Z,9.03
2019-02-02T15:08:05.944Z,8.40
2019-02-02T15:10:35.397Z,8.43
2019-02-02T15:13:04.968Z,10.30
2019-02-02T15:15:34.421Z,8.70
2019-02-02T15:18:03.872Z,8.17
2019-02-02T15:20:37.684Z,8.70
2019-02-02T15:23:07.201Z,9.40
2019-02-02T15:25:36.910Z,8.57
2019-02-02T15:28:06.641Z,8.13
2019-02-02T15:30:37.525Z,8.60
2019-02-02T15:33:07.345Z,9.10
2019-02-02T15:35:36.819Z,8.60
2019-02-02T15:38:06.777Z,10.30
2019-02-02T15:40:36.275Z,16.80
2019-02-02T15:43:06.088Z,18.10
2019-02-02T15:45:35.541Z,18.20
2019-02-02T15:48:05.369Z,16.27
2019-02-02T15:50:34.853Z,15.83
2019-02-02T15:53:04.382Z,17.70
2019-02-02T15:55:33.830Z,17.80
2019-02-02T15:58:03.334Z,18.50
2019-02-02T16:00:36.110Z,20.77
2019-02-02T16:03:06.375Z,19.73
2019-02-02T16:05:36.607Z,26.90
2019-02-02T16:08:10.542Z,26.97
2019-02-02T16:10:40.017Z,28.90
2019-02-02T16:13:09.671Z,31.13
2019-02-02T16:15:40.669Z,28.37
2019-02-02T16:18:10.182Z,32.00
2019-02-02T16:20:44.484Z,31.00
2019-02-02T16:23:14.003Z,30.53
2019-02-02T16:25:43.446Z,31.83
2019-02-02T16:28:12.981Z,34.37
2019-02-02T16:30:42.427Z,36.57
2019-02-02T16:33:11.867Z,33.40
2019-02-02T16:35:42.978Z,38.03
2019-02-02T16:38:12.581Z,40.73
2019-02-02T16:40:42.025Z,41.13
2019-02-02T16:43:11.590Z,43.00
2019-02-02T16:45:41.035Z,42.90
2019-02-02T16:48:10.490Z,41.10
2019-02-02T16:50:39.979Z,40.70
2019-02-02T16:53:09.425Z,38.43
2019-02-02T16:55:38.869Z,37.57
2019-02-02T16:58:08.412Z,35.50
2019-02-02T17:00:38.629Z,35.63
2019-02-02T17:03:08.152Z,37.80
2019-02-02T17:05:37.629Z,38.07
2019-02-02T17:08:07.078Z,35.10
2019-02-02T17:10:37.567Z,36.00
2019-02-02T17:13:07.589Z,36.20
2019-02-02T17:15:37.108Z,36.80
2019-02-02T17:18:07.095Z,38.53
2019-02-02T17:20:42.459Z,37.70
2019-02-02T17:23:11.990Z,38.53
2019-02-02T17:25:41.573Z,39.33
2019-02-02T17:28:11.285Z,38.20
2019-02-02T17:30:40.806Z,40.63
2019-02-02T17:33:13.354Z,40.97
2019-02-02T17:35:42.842Z,39.87
2019-02-02T17:38:12.453Z,38.57
2019-02-02T17:40:41.980Z,35.60
2019-02-02T17:43:11.457Z,37.90
2019-02-02T17:45:40.964Z,40.30
2019-02-02T17:48:13.083Z,38.00
2019-02-02T17:50:41.608Z,38.73
2019-02-02T17:53:11.064Z,39.80
2019-02-02T17:55:40.515Z,41.47
2019-02-02T17:58:13.134Z,40.40
2019-02-02T18:00:45.142Z,42.30
2019-02-02T18:03:14.688Z,42.27
2019-02-02T18:05:44.122Z,44.47
2019-02-02T18:08:13.572Z,44.33
2019-02-02T18:10:43.091Z,51.97
2019-02-02T18:13:12.538Z,59.17
2019-02-02T18:15:42.065Z,57.57
2019-02-02T18:18:12.727Z,51.77
2019-02-02T18:20:42.267Z,50.10
2019-02-02T18:23:11.822Z,50.27
2019-02-02T18:25:41.258Z,57.93
2019-02-02T18:28:10.847Z,56.40
2019-02-02T18:30:40.322Z,48.97
2019-02-02T18:33:09.835Z,35.43
2019-02-02T18:35:39.295Z,50.90
2019-02-02T18:38:08.726Z,48.93
2019-02-02T18:40:40.217Z,59.73
2019-02-02T18:43:09.477Z,59.00
2019-02-02T18:45:38.928Z,59.00
2019-02-02T18:48:08.434Z,64.03
2019-02-02T18:50:37.877Z,63.37
2019-02-02T18:53:07.328Z,75.17
2019-02-02T18:55:44.258Z,71.03
2019-02-02T18:58:13.703Z,81.87
2019-02-02T19:00:43.150Z,72.20
2019-02-02T19:03:12.649Z,68.53
2019-02-02T19:05:42.114Z,66.27
2019-02-02T19:08:11.592Z,64.50
2019-02-02T19:10:43.911Z,64.07
2019-02-02T19:13:13.357Z,62.60
2019-02-02T19:15:42.872Z,59.83
2019-02-02T19:18:12.432Z,54.87
2019-02-02T19:20:45.072Z,55.80
2019-02-02T19:23:24.585Z,55.17
2019-02-02T19:25:48.704Z,50.97
2019-02-02T19:28:18.223Z,52.10
2019-02-02T19:30:47.667Z,52.93
2019-02-02T19:33:17.145Z,49.83
2019-02-02T19:35:46.587Z,51.00
2019-02-02T19:38:16.033Z,48.33
2019-02-02T19:40:45.521Z,47.53
2019-02-02T19:43:15.521Z,50.70
2019-02-02T19:45:44.961Z,47.33
2019-02-02T19:48:14.446Z,47.10
2019-02-02T19:50:43.903Z,45.33
2019-02-02T19:53:13.416Z,44.27
2019-02-02T19:55:42.907Z,45.33
2019-02-02T19:58:13.453Z,46.30
2019-02-02T20:00:42.896Z,47.20
2019-02-02T20:03:12.400Z,46.60
2019-02-02T20:05:41.855Z,44.13
2019-02-02T20:08:11.306Z,43.97
2019-02-02T20:10:40.786Z,46.53
2019-02-02T20:13:10.228Z,46.93
2019-02-02T20:15:39.681Z,46.23
2019-02-02T20:18:10.454Z,53.00
2019-02-02T20:20:40.302Z,67.00
2019-02-02T20:23:09.737Z,55.77
2019-02-02T20:25:39.375Z,53.37
2019-02-02T20:28:08.816Z,52.60
2019-02-02T20:30:38.261Z,50.20
2019-02-02T20:33:07.740Z,48.67
2019-02-02T20:35:42.115Z,44.80
2019-02-02T20:38:08.423Z,49.23
2019-02-02T20:40:37.891Z,43.90
2019-02-02T20:43:08.892Z,44.27
2019-02-02T20:45:39.474Z,44.60
2019-02-02T20:48:09.065Z,44.77
2019-02-02T20:50:38.534Z,44.23
2019-02-02T20:53:07.965Z,46.20
2019-02-02T20:55:42.021Z,39.63
2019-02-02T20:58:11.490Z,42.23
2019-02-02T21:00:41.579Z,44.30
2019-02-02T21:03:11.138Z,50.23
2019-02-02T21:05:51.576Z,45.83
2019-02-02T21:08:11.824Z,51.90
2019-02-02T21:10:44.408Z,36.30
2019-02-02T21:13:12.474Z,44.10
2019-02-02T21:15:42.000Z,50.53
2019-02-02T21:18:11.975Z,64.97
2019-02-02T21:20:41.642Z,43.97
2019-02-02T21:23:11.123Z,48.47
2019-02-02T21:25:40.608Z,44.97
2019-02-02T21:28:10.129Z,41.03
2019-02-02T21:30:39.606Z,45.93
2019-02-02T21:33:09.402Z,50.03
2019-02-02T21:35:38.856Z,44.87
2019-02-02T21:38:08.507Z,47.40
2019-02-02T21:40:38.017Z,48.73
2019-02-02T21:43:08.769Z,42.33
2019-02-02T21:45:38.664Z,45.00
2019-02-02T21:48:08.300Z,46.00
2019-02-02T21:50:37.723Z,42.23
2019-02-02T21:53:07.012Z,33.07
2019-02-02T21:55:36.458Z,37.50
2019-02-02T21:58:06.289Z,38.30
2019-02-02T22:00:42.107Z,41.47
2019-02-02T22:03:11.832Z,44.37
2019-02-02T22:05:41.320Z,35.17
2019-02-02T22:08:11.033Z,37.93
2019-02-02T22:10:40.875Z,40.47
2019-02-02T22:13:10.549Z,33.73
2019-02-02T22:15:39.992Z,41.40
2019-02-02T22:18:09.432Z,33.17
2019-02-02T22:20:38.906Z,34.00
2019-02-02T22:23:08.822Z,26.70
2019-02-02T22:25:38.265Z,34.17
2019-02-02T22:28:08.055Z,44.90
2019-02-02T22:30:38.859Z,34.13
2019-02-02T22:33:08.298Z,34.33
2019-02-02T22:35:37.785Z,36.43
2019-02-02T22:38:07.604Z,31.70
2019-02-02T22:40:37.085Z,43.10
2019-02-02T22:43:06.811Z,45.63
2019-02-02T22:45:36.270Z,49.60
2019-02-02T22:48:06.661Z,29.47
2019-02-02T22:50:36.110Z,30.00
2019-02-02T22:53:06.121Z,34.53
2019-02-02T22:55:35.840Z,26.27
2019-02-02T22:58:05.720Z,29.43
2019-02-02T23:00:59.233Z,43.43
2019-02-02T23:03:41.969Z,43.47
2019-02-02T23:06:39.506Z,49.40
2019-02-02T23:09:51.149Z,51.43
2019-02-02T23:12:43.005Z,53.73
2019-02-02T23:15:31.593Z,49.30
2019-02-02T23:18:01.031Z,31.80
2019-02-02T23:20:30.510Z,28.50
2019-02-02T23:23:00.000Z,30.67
2019-02-02T23:25:29.452Z,48.03
2019-02-02T23:27:59.168Z,53.93
2019-02-02T23:30:28.653Z,45.87
2019-02-02T23:32:58.097Z,44.87
2019-02-02T23:35:27.543Z,39.90
2019-02-02T23:37:57.340Z,36.20
2019-02-02T23:40:26.833Z,39.03
2019-02-02T23:42:56.273Z,37.43
2019-02-02T23:45:26.174Z,39.70
2019-02-02T23:47:55.640Z,40.37
2019-02-02T23:50:25.129Z,33.60
2019-02-02T23:52:54.603Z,35.53
2019-02-02T23:55:24.097Z,24.50
2019-02-02T23:57:53.541Z,31.07
